Estación Meteorológica Peña el Pijo (Robertgarden) [ 02/03/23 03:21:49 CET ]

Fecha Hora Presion(HPa) Temp (°C) Humedad % Rocio (°C) Viento ( m/s) Direccion Lluvia 1Hora(mm) Lluvia 24H(mm) LLuvia Total(mm)
2012-Jan-18 01:01:13 1019.300 3.2 94 2.3         151.25
2012-Jan-18 02:01:44 1019.100 3.1 94 2.2         151.25
2012-Jan-18 03:03:11 1019.400 3.1 94 2.2         151.25
2012-Jan-18 04:01:13 1019.300 2.9 94 2.0         151.25
2012-Jan-18 05:01:14 1019.100 2.9 94 2.0         151.25
2012-Jan-18 06:01:12 1019.400 2.8 94 1.9         151.25
2012-Jan-18 07:01:17 1019.600 2.7 94 1.8         151.25
2012-Jan-18 08:01:15 1020.300 2.7 94 1.8         151.25
2012-Jan-18 09:01:16 1020.700 2.9 94 2.0         151.25
2012-Jan-18 10:01:13 1021.300 4.1 95 3.4         151.25
2012-Jan-18 11:01:16 1021.800 7.4 88 5.6         151.25
2012-Jan-18 12:01:12 1022.000 7.3 82 4.4         151.25
2012-Jan-18 13:01:14 1021.600 9.4 69 4.0         151.25
2012-Jan-18 14:01:17 1020.700 11.1 59 3.3         151.25
2012-Jan-18 15:01:13 1020.300 11.2 55 2.4         151.25
2012-Jan-18 16:01:18 1020.700 11.8 50 1.7         151.25
2012-Jan-18 17:01:17 1020.800 8.8 56 0.5         151.25
2012-Jan-18 18:01:20 1021.200 6.4 63 -0.2         151.25
2012-Jan-18 19:01:19 1022.000 4.2 71 -0.6         151.25
2012-Jan-18 20:01:17 1022.600 1.9 78 -1.6         151.25
2012-Jan-18 21:01:13 1023.300 0.3 83 -2.2         151.25
2012-Jan-18 22:01:13 1023.400 -0.5 85 -2.7         151.25
2012-Jan-18 23:01:09 1023.800 -0.9 87 -2.8         151.25

Temperatura Máxima:11°    Temperatura Mínima:
Presión Máxima:1023.800 Hpa    Presión Mínima:1019.100 Hpa


Volver